createdAt,value
2022-08-12T00:00:47.375Z,93.80
2022-08-12T00:03:36.574Z,93.52
2022-08-12T00:06:26.213Z,93.72
2022-08-12T00:09:15.800Z,93.64
2022-08-12T00:12:04.882Z,93.73
2022-08-12T00:14:53.780Z,93.96
2022-08-12T00:17:42.216Z,94.47
2022-08-12T00:20:31.361Z,95.05
2022-08-12T00:23:19.590Z,94.44
2022-08-12T00:26:22.583Z,94.38
2022-08-12T00:29:14.891Z,94.36
2022-08-12T00:32:03.570Z,94.37
2022-08-12T00:34:53.794Z,94.37
2022-08-12T00:37:44.018Z,94.40
2022-08-12T00:40:33.759Z,94.42
2022-08-12T00:43:05.271Z,94.18
2022-08-12T00:45:55.739Z,94.55
2022-08-12T00:48:27.630Z,94.51
2022-08-12T00:50:59.621Z,94.36
2022-08-12T00:53:32.101Z,94.53
2022-08-12T00:56:03.448Z,94.39
2022-08-12T00:58:34.724Z,94.96
2022-08-12T01:01:09.597Z,95.11
2022-08-12T01:04:00.168Z,94.86
2022-08-12T01:06:53.585Z,95.04
2022-08-12T01:09:43.494Z,94.55
2022-08-12T01:12:15.275Z,94.46
2022-08-12T01:14:46.119Z,94.54
2022-08-12T01:17:16.931Z,94.40
2022-08-12T01:19:49.724Z,94.43
2022-08-12T01:22:51.575Z,94.41
2022-08-12T01:25:24.600Z,94.25
2022-08-12T01:27:56.384Z,95.23
2022-08-12T01:30:28.157Z,95.16
2022-08-12T01:33:00.598Z,95.08
2022-08-12T01:35:33.498Z,94.77
2022-08-12T01:38:07.649Z,94.66
2022-08-12T01:40:42.531Z,95.00
2022-08-12T01:43:23.466Z,94.96
2022-08-12T01:46:16.098Z,95.15
2022-08-12T01:49:02.159Z,95.28
2022-08-12T01:52:15.860Z,95.74
2022-08-12T01:54:41.406Z,95.69
2022-08-12T01:57:58.563Z,95.05
2022-08-12T02:00:15.575Z,95.71
2022-08-12T02:03:19.966Z,96.48
2022-08-12T02:06:14.724Z,97.03
2022-08-12T02:09:07.533Z,97.29
2022-08-12T02:12:06.269Z,97.16
2022-08-12T02:14:54.118Z,97.03
2022-08-12T02:17:56.863Z,97.23
2022-08-12T02:20:51.322Z,97.25
2022-08-12T02:23:29.205Z,97.48
2022-08-12T02:26:20.182Z,97.34
2022-08-12T02:28:51.193Z,97.15
2022-08-12T02:31:22.233Z,96.75
2022-08-12T02:33:53.445Z,96.65
2022-08-12T02:36:24.228Z,96.29
2022-08-12T02:38:56.873Z,96.70
2022-08-12T02:41:28.549Z,97.15
2022-08-12T02:44:06.341Z,97.71
2022-08-12T02:46:38.421Z,97.28
2022-08-12T02:49:17.373Z,96.91
2022-08-12T02:51:48.356Z,96.56
2022-08-12T02:54:19.090Z,96.62
2022-08-12T02:56:50.859Z,96.23
2022-08-12T02:59:24.815Z,96.73
2022-08-12T03:01:57.663Z,97.20
2022-08-12T03:04:37.897Z,96.80
2022-08-12T03:07:29.608Z,97.14
2022-08-12T03:10:18.102Z,97.15
2022-08-12T03:13:09.538Z,97.46
2022-08-12T03:15:40.300Z,97.38
2022-08-12T03:18:25.925Z,98.00
2022-08-12T03:21:00.871Z,97.35
2022-08-12T03:23:32.416Z,98.10
2022-08-12T03:26:04.009Z,98.44
2022-08-12T03:28:52.103Z,98.33
2022-08-12T03:31:26.107Z,98.18
2022-08-12T03:34:03.548Z,98.03
2022-08-12T03:36:36.624Z,97.90
2022-08-12T03:39:35.956Z,97.63
2022-08-12T03:42:19.415Z,97.68
2022-08-12T03:45:23.581Z,97.70
2022-08-12T03:48:44.096Z,97.66
2022-08-12T03:51:32.463Z,98.06
2022-08-12T03:54:21.316Z,98.25
2022-08-12T03:57:10.569Z,98.52
2022-08-12T03:59:58.872Z,98.16
2022-08-12T04:02:30.088Z,98.62
2022-08-12T04:05:00.727Z,98.38
2022-08-12T04:07:33.257Z,98.10
2022-08-12T04:10:04.124Z,97.99
2022-08-12T04:12:52.498Z,98.58
2022-08-12T04:15:27.011Z,97.81
2022-08-12T04:18:06.834Z,98.32
2022-08-12T04:20:38.752Z,98.25
2022-08-12T04:23:10.831Z,98.21
2022-08-12T04:25:47.232Z,97.60
2022-08-12T04:28:18.363Z,97.83
2022-08-12T04:31:09.164Z,98.34
2022-08-12T04:33:39.543Z,98.03
2022-08-12T04:36:10.789Z,97.91
2022-08-12T04:38:41.209Z,98.27
2022-08-12T04:41:12.104Z,98.99
2022-08-12T04:43:55.373Z,98.65
2022-08-12T04:46:34.444Z,98.35
2022-08-12T04:49:06.454Z,98.28
2022-08-12T04:51:37.614Z,97.88
2022-08-12T04:54:08.233Z,98.06
2022-08-12T04:56:38.765Z,97.60
2022-08-12T04:59:09.661Z,97.41
2022-08-12T05:01:40.114Z,97.81
2022-08-12T05:04:12.053Z,98.37
2022-08-12T05:06:42.397Z,98.41
2022-08-12T05:09:13.496Z,98.39
2022-08-12T05:11:53.816Z,98.38
2022-08-12T05:14:25.251Z,99.21
2022-08-12T05:16:55.759Z,98.78
2022-08-12T05:19:26.309Z,98.96
2022-08-12T05:21:56.770Z,98.64
2022-08-12T05:24:27.333Z,98.24
2022-08-12T05:26:57.942Z,97.72
2022-08-12T05:30:07.513Z,98.07
2022-08-12T05:32:21.988Z,98.32
2022-08-12T05:34:52.974Z,98.38
2022-08-12T05:37:24.878Z,98.60
2022-08-12T05:39:55.371Z,98.71
2022-08-12T05:42:32.547Z,97.97
2022-08-12T05:45:05.321Z,98.24
2022-08-12T05:47:36.546Z,98.20
2022-08-12T05:50:13.610Z,98.57
2022-08-12T05:52:45.341Z,98.33
2022-08-12T05:55:18.860Z,98.08
2022-08-12T05:57:56.494Z,97.96
2022-08-12T06:00:28.684Z,97.36
2022-08-12T06:03:02.845Z,97.42
2022-08-12T06:05:51.848Z,98.11
2022-08-12T06:08:27.230Z,98.67
2022-08-12T06:10:58.525Z,98.46
2022-08-12T06:13:53.751Z,98.39
2022-08-12T06:16:22.065Z,98.03
2022-08-12T06:18:53.207Z,98.11
2022-08-12T06:21:24.730Z,98.43
2022-08-12T06:23:55.728Z,98.08
2022-08-12T06:26:26.106Z,98.37
2022-08-12T06:28:58.796Z,98.04
2022-08-12T06:31:29.340Z,98.28
2022-08-12T06:34:52.884Z,98.18
2022-08-12T06:36:49.879Z,98.70
2022-08-12T06:39:20.251Z,98.85
2022-08-12T06:42:33.229Z,98.34
2022-08-12T06:44:59.190Z,98.93
2022-08-12T06:47:29.559Z,98.35
2022-08-12T06:49:59.947Z,99.06
2022-08-12T06:52:32.453Z,98.74
2022-08-12T06:55:02.905Z,98.88
2022-08-12T06:58:06.334Z,98.67
2022-08-12T07:00:32.846Z,98.19
2022-08-12T07:03:23.402Z,98.57
2022-08-12T07:05:54.334Z,98.88
2022-08-12T07:08:25.010Z,98.13
2022-08-12T07:11:03.517Z,98.60
2022-08-12T07:14:02.442Z,98.22
2022-08-12T07:16:54.180Z,98.28
2022-08-12T07:19:24.802Z,98.44
2022-08-12T07:22:12.682Z,98.30
2022-08-12T07:24:43.637Z,98.29
2022-08-12T07:27:14.078Z,98.30
2022-08-12T07:29:58.298Z,98.28
2022-08-12T07:32:35.080Z,98.26
2022-08-12T07:35:05.415Z,98.21
2022-08-12T07:37:41.805Z,98.50
2022-08-12T07:40:14.016Z,98.66
2022-08-12T07:42:45.442Z,98.17
2022-08-12T07:45:16.424Z,98.45
2022-08-12T07:47:46.890Z,98.78
2022-08-12T07:50:23.733Z,98.86
2022-08-12T07:52:54.549Z,98.53
2022-08-12T07:55:25.137Z,98.42
2022-08-12T07:58:00.529Z,98.13
2022-08-12T08:00:33.088Z,98.73
2022-08-12T08:03:03.739Z,98.82
2022-08-12T08:05:48.113Z,98.67
2022-08-12T08:08:29.517Z,98.47
2022-08-12T08:11:20.221Z,98.71
2022-08-12T08:13:50.731Z,98.28
2022-08-12T08:16:21.858Z,98.16
2022-08-12T08:18:54.567Z,97.98
2022-08-12T08:21:31.021Z,98.49
2022-08-12T08:24:16.532Z,98.31
2022-08-12T08:26:55.575Z,98.30
2022-08-12T08:29:27.269Z,97.99
2022-08-12T08:32:02.365Z,97.99
2022-08-12T08:34:53.295Z,97.99
2022-08-12T08:37:23.608Z,97.59
2022-08-12T08:39:53.587Z,97.69
2022-08-12T08:42:41.654Z,98.40
2022-08-12T08:45:14.345Z,98.06
2022-08-12T08:47:48.431Z,98.81
2022-08-12T08:50:19.172Z,99.13
2022-08-12T08:52:50.593Z,98.35
2022-08-12T08:55:27.422Z,98.57
2022-08-12T08:58:04.657Z,99.58
2022-08-12T09:00:35.107Z,99.72
2022-08-12T09:04:21.399Z,99.22
2022-08-12T09:06:02.822Z,98.94
2022-08-12T09:08:34.064Z,98.74
2022-08-12T09:12:06.905Z,98.39
2022-08-12T09:17:06.848Z,98.85
2022-08-12T09:19:38.494Z,98.63
2022-08-12T09:22:10.597Z,98.89
2022-08-12T09:24:49.239Z,99.55
2022-08-12T09:27:24.482Z,99.44
2022-08-12T09:30:17.236Z,98.89
2022-08-12T09:33:04.520Z,99.13
2022-08-12T09:35:42.882Z,98.52
2022-08-12T09:38:28.314Z,98.40
2022-08-12T09:42:08.716Z,99.00
2022-08-12T09:44:38.199Z,98.17
2022-08-12T09:47:00.488Z,98.56
2022-08-12T09:49:41.969Z,98.59
2022-08-12T09:52:16.680Z,98.46
2022-08-12T09:54:51.994Z,98.24
2022-08-12T09:58:07.277Z,98.19
2022-08-12T10:00:28.331Z,98.16
2022-08-12T10:03:02.756Z,97.73
2022-08-12T10:06:27.601Z,97.78
2022-08-12T10:08:31.742Z,97.97
2022-08-12T10:11:21.753Z,98.85
2022-08-12T10:13:58.600Z,98.48
2022-08-12T10:16:39.286Z,99.28
2022-08-12T10:19:17.046Z,99.18
2022-08-12T10:21:48.696Z,99.01
2022-08-12T10:24:27.383Z,98.77
2022-08-12T10:27:16.012Z,98.56
2022-08-12T10:30:37.889Z,98.03
2022-08-12T10:32:44.132Z,98.13
2022-08-12T10:35:17.876Z,98.33
2022-08-12T10:38:37.601Z,97.59
2022-08-12T10:41:03.974Z,98.49
2022-08-12T10:43:54.305Z,98.99
2022-08-12T10:46:30.892Z,98.84
2022-08-12T10:49:05.641Z,98.93
2022-08-12T10:52:05.189Z,98.82
2022-08-12T10:54:44.716Z,98.92
2022-08-12T10:58:12.714Z,98.55
2022-08-12T11:00:31.262Z,99.11
2022-08-12T11:04:20.846Z,98.84
2022-08-12T11:07:08.176Z,98.79
2022-08-12T11:08:47.514Z,99.29
2022-08-12T11:12:36.619Z,98.52
2022-08-12T11:14:49.695Z,98.72
2022-08-12T11:17:43.482Z,99.08
2022-08-12T11:19:59.004Z,99.36
2022-08-12T11:22:32.546Z,99.38
2022-08-12T11:25:02.483Z,98.96
2022-08-12T11:27:41.128Z,98.68
2022-08-12T11:30:31.210Z,98.95
2022-08-12T11:33:02.390Z,99.04
2022-08-12T11:35:45.088Z,99.28
2022-08-12T11:38:22.412Z,99.15
2022-08-12T11:40:53.435Z,99.34
2022-08-12T11:43:23.928Z,99.43
2022-08-12T11:46:02.444Z,98.62
2022-08-12T11:48:52.625Z,98.33
2022-08-12T11:51:23.512Z,98.36
2022-08-12T11:53:57.661Z,98.26
2022-08-12T11:56:38.155Z,98.06
2022-08-12T12:02:05.361Z,97.74
2022-08-12T12:04:36.370Z,97.35
2022-08-12T12:07:11.513Z,97.06
2022-08-12T12:09:52.448Z,97.16
2022-08-12T12:12:25.350Z,97.65
2022-08-12T12:14:56.816Z,96.99
2022-08-12T12:17:38.115Z,96.24
2022-08-12T12:20:12.825Z,95.48
2022-08-12T12:22:45.327Z,95.95
2022-08-12T12:25:15.751Z,95.55
2022-08-12T12:28:05.918Z,94.80
2022-08-12T12:30:37.687Z,94.83
2022-08-12T12:33:09.872Z,94.85
2022-08-12T12:36:18.418Z,93.96
2022-08-12T12:38:38.768Z,93.76
2022-08-12T12:41:16.220Z,94.28
2022-08-12T12:44:03.430Z,94.07
2022-08-12T12:46:34.937Z,93.64
2022-08-12T12:49:06.765Z,93.63
2022-08-12T12:52:17.151Z,92.66
2022-08-12T12:54:31.915Z,92.31
2022-08-12T12:57:04.309Z,91.14
2022-08-12T12:59:56.329Z,90.00
2022-08-12T13:02:31.640Z,91.46
2022-08-12T13:05:02.846Z,90.81
2022-08-12T13:07:54.454Z,90.53
2022-08-12T13:10:30.678Z,88.94
2022-08-12T13:14:08.228Z,89.69
2022-08-12T13:15:59.128Z,88.09
2022-08-12T13:18:38.071Z,87.01
2022-08-12T13:21:15.629Z,86.19
2022-08-12T13:24:09.801Z,86.84
2022-08-12T13:26:47.068Z,87.24
2022-08-12T13:29:17.418Z,85.29
2022-08-12T13:32:18.728Z,86.75
2022-08-12T13:34:38.797Z,83.95
2022-08-12T13:37:09.933Z,83.14
2022-08-12T13:39:40.675Z,83.37
2022-08-12T13:42:14.261Z,82.46
2022-08-12T13:44:46.201Z,81.52
2022-08-12T13:47:20.050Z,83.27
2022-08-12T13:49:56.210Z,84.70
2022-08-12T13:52:26.770Z,79.85
2022-08-12T13:54:56.928Z,80.79
2022-08-12T13:57:47.177Z,77.09
2022-08-12T14:00:18.271Z,79.11
2022-08-12T14:02:53.144Z,78.74
2022-08-12T14:05:31.086Z,75.79
2022-08-12T14:08:10.610Z,78.33
2022-08-12T14:10:51.016Z,76.59
2022-08-12T14:14:05.411Z,75.51
2022-08-12T14:16:38.198Z,75.16
2022-08-12T14:19:10.447Z,75.57
2022-08-12T14:21:59.288Z,74.10
2022-08-12T14:24:36.615Z,73.71
2022-08-12T14:27:11.891Z,74.33
2022-08-12T14:30:05.474Z,71.36
2022-08-12T14:32:39.948Z,71.73
2022-08-12T14:35:12.433Z,69.99
2022-08-12T14:37:55.899Z,72.00
2022-08-12T14:40:32.062Z,71.80
2022-08-12T14:43:06.192Z,72.15
2022-08-12T14:45:47.182Z,71.83
2022-08-12T14:48:24.351Z,68.44
2022-08-12T14:52:10.295Z,70.10
2022-08-12T14:55:43.442Z,68.87
2022-08-12T14:59:58.430Z,67.32
2022-08-12T15:02:30.868Z,65.69
2022-08-12T15:05:04.000Z,66.28
2022-08-12T15:07:51.245Z,68.67
2022-08-12T15:10:31.620Z,65.55
2022-08-12T15:13:08.278Z,64.87
2022-08-12T15:15:46.613Z,65.20
2022-08-12T15:18:20.890Z,64.13
2022-08-12T15:20:54.574Z,63.86
2022-08-12T15:23:33.156Z,65.61
2022-08-12T15:26:20.827Z,63.64
2022-08-12T15:28:58.485Z,62.30
2022-08-12T15:32:00.610Z,59.99
2022-08-12T15:34:19.303Z,61.27
2022-08-12T15:36:55.188Z,61.99
2022-08-12T15:39:27.626Z,64.00
2022-08-12T15:42:01.981Z,60.62
2022-08-12T15:44:38.693Z,58.91
2022-08-12T15:47:16.312Z,60.65
2022-08-12T15:49:59.807Z,57.81
2022-08-12T15:52:31.783Z,61.17
2022-08-12T15:55:06.083Z,60.14
2022-08-12T15:57:55.393Z,58.38
2022-08-12T16:00:32.976Z,58.35
2022-08-12T16:03:14.371Z,56.03
2022-08-12T16:06:12.374Z,56.41
2022-08-12T16:08:42.644Z,58.01
2022-08-12T16:11:18.750Z,57.95
2022-08-12T16:13:49.064Z,57.31
2022-08-12T16:16:23.811Z,58.24
2022-08-12T16:19:03.268Z,58.36
2022-08-12T16:21:51.094Z,57.26
2022-08-12T16:24:23.864Z,56.80
2022-08-12T16:26:55.181Z,56.19
2022-08-12T16:29:38.637Z,57.89
2022-08-12T16:32:31.660Z,56.61
2022-08-12T16:35:02.787Z,55.30
2022-08-12T16:38:26.031Z,56.20
2022-08-12T16:40:25.253Z,55.02
2022-08-12T16:43:01.784Z,52.05
2022-08-12T16:46:05.194Z,53.37
2022-08-12T16:48:35.363Z,51.52
2022-08-12T16:51:13.934Z,52.82
2022-08-12T16:53:45.700Z,49.33
2022-08-12T16:56:18.130Z,49.18
2022-08-12T16:58:48.771Z,48.15
2022-08-12T17:01:22.773Z,48.15
2022-08-12T17:04:09.444Z,48.07
2022-08-12T17:06:49.116Z,47.95
2022-08-12T17:09:19.716Z,46.55
2022-08-12T17:11:50.624Z,48.39
2022-08-12T17:14:24.748Z,45.84
2022-08-12T17:16:56.998Z,44.94
2022-08-12T17:20:30.140Z,44.28
2022-08-12T17:22:21.705Z,44.39
2022-08-12T17:24:55.911Z,47.95
2022-08-12T17:27:31.626Z,47.08
2022-08-12T17:30:06.308Z,45.93
2022-08-12T17:32:38.699Z,45.60
2022-08-12T17:35:36.802Z,41.53
2022-08-12T17:38:14.992Z,46.55
2022-08-12T17:40:48.893Z,44.11
2022-08-12T17:43:54.901Z,46.71
2022-08-12T17:46:24.026Z,43.02
2022-08-12T17:49:18.834Z,43.48
2022-08-12T17:52:01.913Z,47.18
2022-08-12T17:54:37.403Z,44.64
2022-08-12T17:57:15.936Z,45.47
2022-08-12T17:59:48.491Z,50.04
2022-08-12T18:02:25.543Z,50.79
2022-08-12T18:05:09.574Z,44.24
2022-08-12T18:07:41.376Z,45.92
2022-08-12T18:10:13.953Z,47.72
2022-08-12T18:12:48.874Z,50.01
2022-08-12T18:15:26.507Z,53.72
2022-08-12T18:18:16.925Z,41.41
2022-08-12T18:20:48.262Z,42.12
2022-08-12T18:23:24.280Z,44.15
2022-08-12T18:26:17.716Z,45.41
2022-08-12T18:28:48.622Z,46.34
2022-08-12T18:31:24.540Z,46.32
2022-08-12T18:34:19.147Z,38.92
2022-08-12T18:41:20.828Z,47.90
2022-08-12T18:44:23.131Z,50.63
2022-08-12T18:50:18.192Z,49.51
2022-08-12T19:00:30.924Z,53.51
2022-08-12T19:04:08.860Z,56.82
2022-08-12T19:07:04.254Z,54.56
2022-08-12T19:13:08.161Z,57.76
2022-08-12T19:19:26.036Z,57.26
2022-08-12T19:26:23.428Z,58.82
2022-08-12T19:29:29.385Z,60.59
2022-08-12T19:36:24.715Z,63.27
2022-08-12T19:44:55.786Z,61.15
2022-08-12T19:58:04.697Z,66.07
2022-08-12T20:00:53.894Z,66.32
2022-08-12T20:06:34.553Z,68.24
2022-08-12T20:15:44.703Z,71.24
2022-08-12T20:18:19.243Z,71.92
2022-08-12T20:21:15.031Z,72.69
2022-08-12T20:23:59.589Z,72.77
2022-08-12T20:26:32.616Z,73.57
2022-08-12T20:29:05.438Z,73.93
2022-08-12T20:31:37.786Z,75.84
2022-08-12T20:34:08.711Z,75.17
2022-08-12T20:36:45.106Z,75.55
2022-08-12T20:39:52.531Z,75.89
2022-08-12T20:42:10.810Z,76.72
2022-08-12T20:44:43.348Z,76.98
2022-08-12T20:47:19.672Z,77.15
2022-08-12T20:49:55.676Z,77.17
2022-08-12T20:52:34.031Z,77.56
2022-08-12T20:55:15.356Z,77.51
2022-08-12T20:58:02.565Z,78.13
2022-08-12T21:00:35.593Z,78.48
2022-08-12T21:03:24.630Z,78.78
2022-08-12T21:06:14.151Z,79.02
2022-08-12T21:08:45.120Z,79.01
2022-08-12T21:11:15.466Z,78.62
2022-08-12T21:13:49.098Z,79.85
2022-08-12T21:16:35.606Z,78.23
2022-08-12T21:19:08.230Z,78.23
2022-08-12T21:21:50.242Z,79.14
2022-08-12T21:24:22.085Z,80.27
2022-08-12T21:27:03.476Z,79.73
2022-08-12T21:29:40.214Z,81.07
2022-08-12T21:32:37.617Z,81.59
2022-08-12T21:35:19.438Z,81.09
2022-08-12T21:37:53.078Z,82.23
2022-08-12T21:40:37.467Z,82.20
2022-08-12T21:43:17.652Z,83.13
2022-08-12T21:46:00.342Z,82.18
2022-08-12T21:48:34.296Z,83.28
2022-08-12T21:51:23.209Z,83.03
2022-08-12T21:54:07.361Z,83.76
2022-08-12T21:56:42.331Z,83.23
2022-08-12T21:59:18.542Z,84.16
2022-08-12T22:01:52.645Z,84.63
2022-08-12T22:04:41.372Z,84.61
2022-08-12T22:07:20.394Z,85.52
2022-08-12T22:09:57.310Z,85.38
2022-08-12T22:12:34.148Z,86.39
2022-08-12T22:15:21.498Z,84.94
2022-08-12T22:17:55.577Z,85.33
2022-08-12T22:20:29.425Z,85.45
2022-08-12T22:23:03.482Z,85.63
2022-08-12T22:25:40.095Z,85.90
2022-08-12T22:28:29.795Z,86.01
2022-08-12T22:31:15.289Z,86.33
2022-08-12T22:33:59.470Z,86.14
2022-08-12T22:36:31.057Z,85.81
2022-08-12T22:39:16.009Z,86.27
2022-08-12T22:42:07.676Z,86.64
2022-08-12T22:44:56.584Z,87.14
2022-08-12T22:47:53.526Z,86.59
2022-08-12T22:50:30.247Z,87.58
2022-08-12T22:53:22.695Z,88.13
2022-08-12T22:55:58.872Z,87.35
2022-08-12T22:58:32.980Z,87.35
2022-08-12T23:01:04.534Z,87.88
2022-08-12T23:03:48.647Z,88.28
2022-08-12T23:06:24.366Z,88.43
2022-08-12T23:08:56.553Z,87.15
2022-08-12T23:11:33.912Z,87.31
2022-08-12T23:14:13.015Z,88.27
2022-08-12T23:16:44.344Z,87.15
2022-08-12T23:19:23.041Z,87.69
2022-08-12T23:22:05.064Z,89.17
2022-08-12T23:24:55.522Z,88.19
2022-08-12T23:27:51.720Z,88.93
2022-08-12T23:30:31.040Z,88.82
2022-08-12T23:33:03.055Z,88.92
2022-08-12T23:35:58.900Z,88.28
2022-08-12T23:38:35.982Z,89.07
2022-08-12T23:41:12.877Z,89.79
2022-08-12T23:43:48.717Z,89.00
2022-08-12T23:46:25.848Z,89.53
2022-08-12T23:49:01.239Z,89.46
2022-08-12T23:51:36.744Z,90.29
2022-08-12T23:54:17.908Z,90.08
2022-08-12T23:57:10.838Z,89.95
2022-08-12T23:59:43.460Z,90.31
